createdAt,value
2017-09-16T00:00:38.946Z,40.47
2017-09-16T00:03:06.457Z,55.07
2017-09-16T00:05:34.006Z,50.30
2017-09-16T00:08:01.534Z,48.70
2017-09-16T00:10:29.058Z,40.70
2017-09-16T00:12:57.368Z,54.83
2017-09-16T00:15:24.918Z,41.63
2017-09-16T00:17:52.442Z,53.47
2017-09-16T00:20:20.856Z,42.60
2017-09-16T00:22:48.378Z,49.00
2017-09-16T00:25:16.662Z,48.40
2017-09-16T00:27:45.070Z,43.83
2017-09-16T00:30:12.590Z,49.38
2017-09-16T00:32:40.871Z,41.37
2017-09-16T00:35:08.421Z,42.55
2017-09-16T00:37:36.718Z,43.42
2017-09-16T00:40:04.259Z,42.35
2017-09-16T00:42:32.566Z,46.42
2017-09-16T00:45:00.086Z,55.47
2017-09-16T00:47:27.639Z,44.13
2017-09-16T00:49:55.167Z,39.45
2017-09-16T00:52:22.690Z,53.87
2017-09-16T00:54:50.238Z,44.50
2017-09-16T00:57:17.757Z,42.62
2017-09-16T00:59:45.309Z,42.15
2017-09-16T01:02:12.830Z,42.65
2017-09-16T01:04:40.355Z,39.23
2017-09-16T01:07:08.678Z,39.83
2017-09-16T01:09:36.190Z,39.47
2017-09-16T01:12:04.514Z,36.55
2017-09-16T01:14:32.054Z,34.10
2017-09-16T01:16:59.570Z,50.83
2017-09-16T01:19:28.618Z,37.33
2017-09-16T01:21:56.147Z,34.17
2017-09-16T01:24:23.697Z,34.25
2017-09-16T01:26:52.241Z,40.03
2017-09-16T01:29:19.767Z,36.85
2017-09-16T01:31:47.317Z,29.63
2017-09-16T01:34:14.833Z,42.62
2017-09-16T01:36:42.358Z,32.92
2017-09-16T01:39:09.914Z,32.97
2017-09-16T01:41:37.447Z,31.67
2017-09-16T01:44:04.974Z,44.20
2017-09-16T01:46:32.561Z,28.63
2017-09-16T01:49:00.842Z,30.33
2017-09-16T01:51:28.364Z,26.10
2017-09-16T01:53:55.931Z,28.17
2017-09-16T01:56:23.442Z,30.37
2017-09-16T01:58:50.953Z,31.83
2017-09-16T02:01:19.282Z,35.23
2017-09-16T02:03:46.816Z,30.83
2017-09-16T02:06:14.339Z,30.10
2017-09-16T02:08:42.683Z,31.30
2017-09-16T02:11:10.202Z,31.07
2017-09-16T02:13:37.725Z,34.77
2017-09-16T02:16:05.274Z,25.17
2017-09-16T02:18:32.788Z,27.00
2017-09-16T02:21:00.314Z,26.10
2017-09-16T02:23:28.629Z,26.60
2017-09-16T02:25:56.199Z,31.95
2017-09-16T02:28:23.721Z,30.30
2017-09-16T02:30:51.318Z,31.83
2017-09-16T02:33:18.838Z,28.17
2017-09-16T02:35:47.130Z,30.95
2017-09-16T02:38:14.689Z,28.90
2017-09-16T02:40:42.218Z,34.33
2017-09-16T02:43:10.518Z,33.17
2017-09-16T02:45:38.103Z,34.03
2017-09-16T02:48:05.626Z,35.63
2017-09-16T02:50:33.910Z,30.73
2017-09-16T02:53:01.491Z,39.33
2017-09-16T02:55:29.010Z,35.53
2017-09-16T02:57:57.294Z,31.50
2017-09-16T03:00:25.611Z,37.23
2017-09-16T03:02:53.171Z,32.63
2017-09-16T03:05:20.697Z,29.73
2017-09-16T03:07:48.255Z,30.83
2017-09-16T03:10:16.566Z,45.35
2017-09-16T03:12:44.077Z,27.13
2017-09-16T03:15:12.395Z,36.08
2017-09-16T03:17:39.917Z,35.85
2017-09-16T03:20:08.216Z,27.90
2017-09-16T03:22:35.769Z,37.38
2017-09-16T03:25:03.298Z,27.27
2017-09-16T03:27:31.595Z,30.62
2017-09-16T03:29:59.161Z,35.53
2017-09-16T03:32:26.690Z,29.42
2017-09-16T03:34:54.222Z,31.90
2017-09-16T03:37:21.769Z,41.15
2017-09-16T03:39:49.326Z,28.42
2017-09-16T03:42:16.850Z,31.62
2017-09-16T03:44:45.141Z,29.98
2017-09-16T03:47:12.830Z,28.73
2017-09-16T03:49:40.382Z,31.58
2017-09-16T03:52:07.898Z,24.57
2017-09-16T03:54:36.190Z,33.40
2017-09-16T03:57:03.734Z,27.43
2017-09-16T03:59:32.048Z,43.42
2017-09-16T04:02:11.502Z,30.48
2017-09-16T04:04:39.022Z,25.73
2017-09-16T04:07:06.552Z,27.95
2017-09-16T04:09:34.862Z,39.97
2017-09-16T04:12:02.394Z,34.05
2017-09-16T04:14:30.703Z,37.80
2017-09-16T04:16:58.235Z,27.17
2017-09-16T04:19:26.764Z,40.90
2017-09-16T04:21:54.290Z,30.58
2017-09-16T04:24:21.823Z,32.55
2017-09-16T04:26:50.151Z,27.27
2017-09-16T04:29:17.683Z,32.10
2017-09-16T04:31:45.209Z,32.42
2017-09-16T04:34:12.754Z,30.62
2017-09-16T04:36:40.273Z,27.92
2017-09-16T04:39:07.830Z,25.65
2017-09-16T04:41:35.385Z,36.33
2017-09-16T04:44:02.910Z,27.45
2017-09-16T04:46:31.225Z,33.30
2017-09-16T04:48:58.745Z,33.38
2017-09-16T04:51:27.034Z,31.00
2017-09-16T04:53:55.354Z,36.47
2017-09-16T04:56:22.908Z,31.40
2017-09-16T04:58:50.434Z,30.35
2017-09-16T05:01:18.026Z,29.45
2017-09-16T05:03:45.550Z,26.20
2017-09-16T05:06:13.842Z,32.10
2017-09-16T05:08:41.394Z,31.58
2017-09-16T05:11:08.918Z,32.38
2017-09-16T05:13:36.466Z,31.87
2017-09-16T05:16:04.025Z,36.97
2017-09-16T05:18:31.542Z,28.98
2017-09-16T05:20:59.062Z,30.75
2017-09-16T05:23:27.387Z,29.40
2017-09-16T05:25:54.914Z,31.75
2017-09-16T05:28:22.447Z,28.90
2017-09-16T05:30:49.994Z,29.75
2017-09-16T05:33:17.515Z,26.90
2017-09-16T05:35:45.075Z,31.15
2017-09-16T05:38:12.598Z,32.33
2017-09-16T05:40:40.890Z,35.38
2017-09-16T05:43:08.438Z,33.75
2017-09-16T05:45:36.733Z,26.98
2017-09-16T05:48:04.287Z,35.25
2017-09-16T05:50:31.814Z,33.85
2017-09-16T05:53:00.938Z,28.77
2017-09-16T05:55:29.254Z,42.67
2017-09-16T05:57:56.802Z,28.75
2017-09-16T06:00:24.317Z,29.80
2017-09-16T06:02:52.638Z,34.70
2017-09-16T06:05:20.197Z,31.90
2017-09-16T06:07:47.709Z,29.90
2017-09-16T06:10:16.027Z,31.83
2017-09-16T06:12:43.545Z,32.37
2017-09-16T06:15:11.830Z,36.20
2017-09-16T06:17:40.146Z,24.73
2017-09-16T06:20:07.675Z,20.77
2017-09-16T06:22:35.954Z,25.57
2017-09-16T06:25:03.504Z,22.93
2017-09-16T06:27:31.798Z,24.33
2017-09-16T06:29:59.318Z,17.90
2017-09-16T06:32:26.873Z,17.20
2017-09-16T06:34:54.394Z,15.00
2017-09-16T06:37:21.946Z,18.67
2017-09-16T06:39:49.491Z,31.60
2017-09-16T06:42:17.065Z,18.77
2017-09-16T06:44:44.620Z,15.20
2017-09-16T06:47:12.143Z,13.63
2017-09-16T06:49:40.459Z,17.63
2017-09-16T06:52:07.991Z,14.43
2017-09-16T06:54:36.270Z,11.63
2017-09-16T06:57:04.578Z,17.13
2017-09-16T06:59:32.103Z,12.97
2017-09-16T07:02:00.422Z,17.03
2017-09-16T07:04:27.934Z,19.17
2017-09-16T07:06:56.210Z,17.07
2017-09-16T07:09:24.519Z,15.03
2017-09-16T07:11:52.042Z,18.20
2017-09-16T07:14:20.354Z,11.63
2017-09-16T07:16:47.910Z,14.67
2017-09-16T07:19:15.425Z,17.43
2017-09-16T07:21:43.029Z,22.83
2017-09-16T07:24:10.546Z,16.00
2017-09-16T07:26:38.835Z,18.90
2017-09-16T07:29:07.134Z,12.27
2017-09-16T07:31:34.690Z,16.20
2017-09-16T07:34:02.211Z,15.03
2017-09-16T07:36:29.758Z,13.57
2017-09-16T07:38:57.274Z,18.03
2017-09-16T07:41:24.801Z,13.80
2017-09-16T07:43:53.106Z,17.67
2017-09-16T07:46:20.633Z,13.17
2017-09-16T07:48:48.921Z,19.07
2017-09-16T07:51:16.458Z,16.07
2017-09-16T07:53:43.969Z,22.27
2017-09-16T07:56:11.519Z,14.03
2017-09-16T07:58:39.038Z,15.80
2017-09-16T08:01:07.322Z,12.57
2017-09-16T08:03:35.626Z,16.43
2017-09-16T08:06:03.190Z,16.23
2017-09-16T08:08:30.883Z,18.13
2017-09-16T08:10:58.418Z,11.10
2017-09-16T08:13:25.942Z,20.00
2017-09-16T08:15:54.255Z,15.20
2017-09-16T08:18:21.804Z,12.57
2017-09-16T08:20:49.323Z,13.90
2017-09-16T08:23:17.639Z,12.67
2017-09-16T08:25:45.159Z,10.67
2017-09-16T08:28:13.475Z,10.13
2017-09-16T08:30:40.994Z,13.40
2017-09-16T08:33:09.273Z,14.03
2017-09-16T08:35:37.586Z,13.90
2017-09-16T08:38:05.119Z,12.07
2017-09-16T08:40:33.397Z,16.80
2017-09-16T08:43:00.929Z,10.10
2017-09-16T08:45:28.447Z,12.80
2017-09-16T08:47:55.998Z,11.67
2017-09-16T08:50:23.570Z,8.07
2017-09-16T08:52:51.082Z,7.23
2017-09-16T08:55:19.394Z,8.43
2017-09-16T08:57:46.910Z,6.10
2017-09-16T09:00:15.195Z,12.83
2017-09-16T09:02:43.496Z,6.60
2017-09-16T09:05:11.014Z,6.20
2017-09-16T09:07:38.571Z,5.80
2017-09-16T09:10:06.179Z,7.10
2017-09-16T09:12:33.690Z,7.33
2017-09-16T09:15:01.222Z,7.17
2017-09-16T09:17:28.734Z,6.97
2017-09-16T09:19:56.286Z,7.40
2017-09-16T09:22:23.873Z,7.03
2017-09-16T09:24:51.385Z,6.53
2017-09-16T09:27:18.991Z,5.70
2017-09-16T09:29:46.498Z,4.33
2017-09-16T09:32:14.014Z,7.33
2017-09-16T09:34:41.554Z,6.67
2017-09-16T09:37:09.078Z,5.17
2017-09-16T09:39:36.685Z,7.50
2017-09-16T09:42:04.230Z,6.37
2017-09-16T09:44:31.804Z,4.73
2017-09-16T09:46:59.323Z,5.60
2017-09-16T09:49:27.628Z,6.10
2017-09-16T09:51:55.149Z,5.30
2017-09-16T09:54:22.686Z,4.60
2017-09-16T09:56:50.212Z,3.97
2017-09-16T09:59:17.750Z,5.60
2017-09-16T10:01:45.263Z,3.20
2017-09-16T10:04:12.802Z,4.47
2017-09-16T10:06:40.309Z,1.93
2017-09-16T10:09:08.623Z,5.03
2017-09-16T10:11:36.133Z,2.50
2017-09-16T10:14:04.410Z,3.20
2017-09-16T10:16:31.942Z,1.47
2017-09-16T10:18:59.449Z,4.27
2017-09-16T10:21:27.750Z,3.80
2017-09-16T10:23:55.265Z,6.60
2017-09-16T10:26:22.810Z,3.83
2017-09-16T10:28:50.317Z,8.27
2017-09-16T10:31:17.825Z,4.80
2017-09-16T10:33:45.375Z,5.60
2017-09-16T10:36:12.890Z,3.13
2017-09-16T10:38:40.405Z,2.80
2017-09-16T10:41:07.945Z,2.90
2017-09-16T10:43:35.458Z,5.53
2017-09-16T10:46:02.970Z,3.03
2017-09-16T10:48:30.514Z,8.47
2017-09-16T10:50:58.102Z,3.20
2017-09-16T10:53:25.723Z,7.13
2017-09-16T10:55:53.274Z,10.87
2017-09-16T10:58:20.790Z,5.97
2017-09-16T11:00:49.073Z,2.40
2017-09-16T11:03:17.483Z,5.50
2017-09-16T11:05:44.998Z,6.77
2017-09-16T11:08:13.273Z,12.40
2017-09-16T11:10:41.582Z,4.43
2017-09-16T11:13:09.102Z,4.50
2017-09-16T11:15:36.614Z,5.13
2017-09-16T11:18:04.154Z,2.50
2017-09-16T11:20:31.674Z,5.30
2017-09-16T11:22:59.193Z,4.00
2017-09-16T11:25:26.736Z,11.23
2017-09-16T11:27:54.252Z,4.40
2017-09-16T11:30:21.789Z,4.20
2017-09-16T11:32:49.325Z,5.33
2017-09-16T11:35:16.867Z,2.73
2017-09-16T11:37:44.395Z,6.40
2017-09-16T11:40:12.679Z,1.73
2017-09-16T11:42:40.983Z,3.03
2017-09-16T11:45:08.498Z,2.10
2017-09-16T11:47:36.029Z,4.50
2017-09-16T11:50:03.546Z,3.77
2017-09-16T11:52:31.109Z,3.00
2017-09-16T11:54:59.047Z,3.03
2017-09-16T11:57:27.332Z,13.43
2017-09-16T11:59:55.643Z,6.07
2017-09-16T12:02:23.159Z,4.20
2017-09-16T12:04:50.763Z,3.93
2017-09-16T12:07:18.316Z,11.43
2017-09-16T12:09:45.831Z,7.93
2017-09-16T12:12:13.346Z,6.90
2017-09-16T12:14:40.889Z,10.73
2017-09-16T12:17:08.457Z,6.83
2017-09-16T12:19:35.979Z,5.20
2017-09-16T12:22:04.302Z,3.20
2017-09-16T12:24:31.824Z,3.37
2017-09-16T12:27:00.139Z,2.53
2017-09-16T12:29:27.662Z,6.73
2017-09-16T12:31:55.178Z,3.77
2017-09-16T12:34:22.713Z,6.10
2017-09-16T12:36:50.260Z,3.13
2017-09-16T12:39:17.802Z,4.47
2017-09-16T12:41:45.310Z,2.73
2017-09-16T12:44:12.880Z,4.90
2017-09-16T12:46:40.391Z,4.50
2017-09-16T12:49:07.911Z,6.00
2017-09-16T12:51:36.209Z,2.03
2017-09-16T12:54:03.727Z,4.40
2017-09-16T12:56:31.269Z,6.30
2017-09-16T12:58:58.804Z,3.10
2017-09-16T13:01:26.346Z,7.37
2017-09-16T13:03:53.924Z,2.07
2017-09-16T13:06:21.436Z,2.67
2017-09-16T13:08:48.977Z,7.37
2017-09-16T13:11:16.497Z,2.87
2017-09-16T13:13:44.013Z,2.40
2017-09-16T13:16:12.328Z,3.30
2017-09-16T13:18:39.841Z,5.43
2017-09-16T13:21:07.452Z,3.87
2017-09-16T13:23:35.003Z,4.13
2017-09-16T13:26:02.522Z,1.50
2017-09-16T13:28:30.829Z,2.47
2017-09-16T13:30:58.346Z,5.83
2017-09-16T13:33:25.886Z,3.60
2017-09-16T13:35:53.703Z,9.90
2017-09-16T13:38:21.977Z,6.87
2017-09-16T13:40:50.253Z,4.67
2017-09-16T13:43:17.795Z,4.30
2017-09-16T13:45:46.083Z,4.30
2017-09-16T13:48:14.493Z,2.20
2017-09-16T13:50:42.011Z,1.67
2017-09-16T13:53:10.312Z,1.77
2017-09-16T13:55:37.838Z,4.00
2017-09-16T13:58:05.386Z,3.80
2017-09-16T14:00:32.899Z,4.87
2017-09-16T14:03:00.414Z,2.43
2017-09-16T14:05:27.971Z,4.90
2017-09-16T14:07:55.482Z,4.20
2017-09-16T14:10:23.006Z,2.60
2017-09-16T14:12:51.311Z,4.70
2017-09-16T14:15:18.821Z,2.73
2017-09-16T14:17:46.363Z,3.43
2017-09-16T14:20:13.874Z,2.33
2017-09-16T14:22:41.386Z,2.97
2017-09-16T14:25:08.917Z,2.70
2017-09-16T14:27:36.426Z,5.57
2017-09-16T14:30:04.739Z,3.80
2017-09-16T14:32:32.250Z,5.10
2017-09-16T14:35:00.558Z,6.60
2017-09-16T14:37:28.086Z,2.73
2017-09-16T14:39:55.635Z,4.00
2017-09-16T14:42:24.653Z,1.40
2017-09-16T14:44:52.961Z,4.23
2017-09-16T14:47:20.535Z,3.90
2017-09-16T14:49:48.079Z,4.30
2017-09-16T14:52:15.590Z,1.30
2017-09-16T14:54:43.138Z,4.80
2017-09-16T14:57:12.200Z,3.90
2017-09-16T14:59:39.709Z,2.03
2017-09-16T15:02:08.023Z,4.80
2017-09-16T15:04:35.533Z,4.80
2017-09-16T15:07:03.054Z,2.60
2017-09-16T15:09:30.602Z,2.13
2017-09-16T15:11:58.120Z,7.20
2017-09-16T15:14:26.403Z,3.73
2017-09-16T15:16:54.709Z,3.43
2017-09-16T15:19:22.272Z,2.10
2017-09-16T15:21:49.819Z,3.13
2017-09-16T15:24:17.334Z,1.53
2017-09-16T15:26:44.848Z,2.50
2017-09-16T15:29:12.411Z,3.00
2017-09-16T15:31:39.926Z,2.27
2017-09-16T15:34:08.240Z,1.63
2017-09-16T15:36:35.750Z,5.63
2017-09-16T15:39:03.360Z,1.30
2017-09-16T15:41:30.910Z,2.53
2017-09-16T15:43:58.426Z,2.93
2017-09-16T15:46:25.947Z,2.00
2017-09-16T15:48:53.497Z,2.80
2017-09-16T15:51:21.006Z,7.53
2017-09-16T15:53:48.518Z,1.70
2017-09-16T15:56:16.097Z,2.13
2017-09-16T15:58:43.610Z,2.87
2017-09-16T16:01:11.129Z,1.57
2017-09-16T16:03:38.670Z,1.93
2017-09-16T16:06:06.190Z,1.63
2017-09-16T16:08:33.706Z,3.03
2017-09-16T16:11:01.262Z,2.37
2017-09-16T16:13:28.792Z,3.07
2017-09-16T16:15:56.306Z,1.20
2017-09-16T16:18:24.613Z,1.50
2017-09-16T16:20:53.667Z,1.83
2017-09-16T16:23:21.183Z,2.03
2017-09-16T16:25:49.481Z,1.97
2017-09-16T16:28:17.064Z,2.17
2017-09-16T16:30:44.593Z,4.60
2017-09-16T16:33:12.895Z,3.73
2017-09-16T16:35:40.434Z,1.53
2017-09-16T16:38:07.959Z,3.20
2017-09-16T16:40:35.483Z,1.43
2017-09-16T16:43:03.069Z,1.87
2017-09-16T16:45:30.594Z,3.60
2017-09-16T16:47:58.142Z,4.50
2017-09-16T16:50:25.653Z,1.17
2017-09-16T16:52:53.963Z,2.10
2017-09-16T16:55:21.482Z,10.07
2017-09-16T16:57:49.104Z,15.40
2017-09-16T17:00:16.638Z,5.10
2017-09-16T17:02:44.914Z,3.00
2017-09-16T17:05:12.497Z,1.77
2017-09-16T17:07:40.010Z,1.60
2017-09-16T17:10:07.527Z,2.17
2017-09-16T17:12:35.071Z,1.17
2017-09-16T17:15:02.590Z,1.67
2017-09-16T17:17:30.877Z,1.87
2017-09-16T17:19:59.181Z,2.20
2017-09-16T17:22:26.694Z,3.73
2017-09-16T17:24:55.733Z,1.50
2017-09-16T17:27:23.255Z,1.30
2017-09-16T17:29:51.559Z,2.33
2017-09-16T17:32:19.074Z,2.50
2017-09-16T17:34:46.623Z,4.50
2017-09-16T17:37:14.142Z,2.77
2017-09-16T17:39:41.658Z,10.00
2017-09-16T17:42:09.215Z,3.97
2017-09-16T17:44:37.494Z,3.43
2017-09-16T17:47:05.010Z,1.43
2017-09-16T17:49:32.556Z,2.63
2017-09-16T17:52:00.079Z,1.77
2017-09-16T17:54:28.391Z,2.27
2017-09-16T17:56:55.910Z,1.93
2017-09-16T17:59:24.202Z,1.63
2017-09-16T18:01:51.738Z,2.07
2017-09-16T18:04:20.026Z,2.20
2017-09-16T18:06:48.439Z,3.43
2017-09-16T18:09:15.957Z,2.90
2017-09-16T18:11:44.271Z,2.20
2017-09-16T18:14:11.786Z,2.43
2017-09-16T18:16:40.101Z,3.00
2017-09-16T18:19:07.671Z,5.03
2017-09-16T18:21:35.194Z,2.30
2017-09-16T18:24:03.497Z,3.10
2017-09-16T18:26:31.047Z,8.43
2017-09-16T18:28:58.659Z,5.43
2017-09-16T18:31:26.200Z,5.00
2017-09-16T18:33:53.863Z,2.70
2017-09-16T18:36:22.204Z,2.70
2017-09-16T18:38:49.733Z,2.90
2017-09-16T18:41:18.264Z,4.60
2017-09-16T18:43:45.829Z,2.30
2017-09-16T18:46:13.382Z,3.93
2017-09-16T18:48:40.914Z,2.20
2017-09-16T18:51:08.560Z,2.60
2017-09-16T18:53:37.083Z,2.90
2017-09-16T18:56:04.650Z,5.70
2017-09-16T18:58:32.215Z,4.50
2017-09-16T19:00:59.861Z,3.27
2017-09-16T19:03:27.625Z,3.63
2017-09-16T19:05:55.166Z,3.80
2017-09-16T19:08:22.948Z,8.53
2017-09-16T19:10:50.499Z,4.33
2017-09-16T19:13:18.027Z,3.40
2017-09-16T19:15:46.358Z,3.20
2017-09-16T19:18:13.878Z,4.87
2017-09-16T19:20:41.438Z,3.10
2017-09-16T19:23:08.983Z,5.73
2017-09-16T19:25:37.407Z,4.70
2017-09-16T19:28:04.986Z,4.10
2017-09-16T19:30:32.519Z,5.70
2017-09-16T19:33:00.792Z,3.90
2017-09-16T19:35:28.361Z,9.57
2017-09-16T19:37:56.121Z,5.40
2017-09-16T19:40:23.698Z,4.20
2017-09-16T19:42:51.546Z,6.43
2017-09-16T19:45:19.241Z,9.53
2017-09-16T19:47:47.583Z,3.77
2017-09-16T19:50:15.139Z,6.77
2017-09-16T19:52:42.908Z,4.37
2017-09-16T19:55:10.438Z,3.60
2017-09-16T19:57:38.003Z,3.83
2017-09-16T20:00:05.565Z,8.63
2017-09-16T20:02:33.106Z,3.27
2017-09-16T20:05:01.622Z,7.20
2017-09-16T20:07:29.385Z,4.77
2017-09-16T20:09:57.134Z,5.57
2017-09-16T20:12:24.829Z,6.53
2017-09-16T20:14:52.382Z,3.30
2017-09-16T20:17:19.918Z,5.93
2017-09-16T20:19:47.695Z,6.00
2017-09-16T20:22:15.263Z,5.87
2017-09-16T20:24:42.940Z,3.10
2017-09-16T20:27:10.539Z,3.13
2017-09-16T20:29:38.949Z,4.30
2017-09-16T20:32:06.638Z,13.37
2017-09-16T20:34:34.411Z,18.23
2017-09-16T20:37:02.246Z,6.50
2017-09-16T20:39:29.794Z,6.53
2017-09-16T20:41:57.354Z,3.50
2017-09-16T20:44:25.128Z,3.23
2017-09-16T20:46:52.687Z,5.97
2017-09-16T20:49:20.231Z,7.33
2017-09-16T20:51:47.933Z,5.07
2017-09-16T20:54:15.463Z,6.37
2017-09-16T20:56:43.231Z,6.40
2017-09-16T20:59:10.793Z,3.20
2017-09-16T21:01:38.307Z,3.43
2017-09-16T21:04:06.653Z,6.13
2017-09-16T21:06:34.189Z,3.23
2017-09-16T21:09:01.731Z,3.30
2017-09-16T21:11:29.271Z,3.00
2017-09-16T21:13:56.794Z,3.30
2017-09-16T21:16:24.337Z,3.60
2017-09-16T21:18:51.854Z,13.23
2017-09-16T21:21:19.367Z,3.87
2017-09-16T21:23:46.926Z,9.73
2017-09-16T21:26:14.438Z,6.30
2017-09-16T21:28:41.955Z,5.93
2017-09-16T21:31:09.494Z,6.50
2017-09-16T21:33:37.010Z,4.50
2017-09-16T21:36:04.531Z,12.07
2017-09-16T21:38:33.592Z,4.90
2017-09-16T21:41:01.140Z,4.77
2017-09-16T21:43:28.654Z,6.63
2017-09-16T21:45:56.962Z,7.13
2017-09-16T21:48:24.474Z,3.73
2017-09-16T21:50:51.986Z,4.53
2017-09-16T21:53:19.528Z,4.60
2017-09-16T21:55:47.038Z,6.17
2017-09-16T21:58:14.557Z,4.37
2017-09-16T22:00:42.106Z,4.57
2017-09-16T22:03:09.626Z,11.70
2017-09-16T22:05:37.142Z,5.90
2017-09-16T22:08:04.690Z,6.37
2017-09-16T22:10:32.197Z,4.80
2017-09-16T22:12:59.710Z,5.20
2017-09-16T22:15:27.242Z,10.10
2017-09-16T22:17:55.518Z,8.17
2017-09-16T22:20:23.819Z,8.83
2017-09-16T22:22:51.387Z,6.00
2017-09-16T22:25:18.922Z,6.10
2017-09-16T22:27:46.431Z,5.30
2017-09-16T22:30:13.969Z,6.53
2017-09-16T22:32:41.482Z,8.83
2017-09-16T22:35:09.798Z,6.27
2017-09-16T22:37:37.331Z,4.67
2017-09-16T22:40:05.601Z,5.80
2017-09-16T22:42:33.141Z,16.40
2017-09-16T22:45:00.659Z,5.43
2017-09-16T22:47:28.206Z,11.33
2017-09-16T22:49:55.718Z,5.30
2017-09-16T22:52:23.258Z,4.50
2017-09-16T22:54:50.770Z,4.80
2017-09-16T22:57:18.306Z,13.73
2017-09-16T22:59:46.585Z,5.03
2017-09-16T23:02:14.881Z,4.93
2017-09-16T23:04:42.389Z,5.10
2017-09-16T23:07:09.939Z,5.23
2017-09-16T23:09:37.450Z,8.40
2017-09-16T23:12:04.965Z,5.77
2017-09-16T23:14:32.497Z,5.00
2017-09-16T23:17:00.047Z,5.60
2017-09-16T23:19:27.559Z,4.93
2017-09-16T23:21:55.835Z,7.23
2017-09-16T23:24:24.154Z,7.27
2017-09-16T23:26:51.666Z,10.20
2017-09-16T23:29:19.193Z,11.40
2017-09-16T23:31:46.702Z,8.07
2017-09-16T23:34:15.004Z,6.17
2017-09-16T23:36:42.525Z,5.80
2017-09-16T23:39:10.834Z,6.63
2017-09-16T23:41:38.345Z,5.90
2017-09-16T23:44:05.862Z,10.77
2017-09-16T23:46:33.401Z,6.00
2017-09-16T23:49:00.916Z,9.33
2017-09-16T23:51:28.427Z,6.40
2017-09-16T23:53:55.959Z,6.60
2017-09-16T23:56:24.243Z,6.27
2017-09-16T23:58:51.786Z,11.00
